Tiempo atmosférico en la estación meteorológica de Bera, Navarra (78 m.)



Fecha
DESCASC
Temp. máxima en grados centígrados (hora)
DESCASC
Temp. mínima en grados centígrados (hora)
DESCASC
Temp. media en grados centígrados
DESCASC
Racha de viento máxima en m/sg (hora)
DESCASC
Velocidad máxima media en intervalos de 10 minutos(hora)
DESCASC
Precipitaciones diarias en mm
DESCASC
Precipitaciones de 00:00 a 06:00 en mm
DESCASC
Precipitaciones de 06:00 a 12:00 en mm
DESCASC
Precipitaciones de 12:00 a 18:00 en mm
DESCASC
Precipitaciones de 18:00 a 24:00 en mm
DESCASC
13-10-2019 29.4 (17:00) 17.5 (23:50) 23.4 12.22 (11:50) 5 (11:50) 0 0 0 0 0
12-10-2019 27 (15:30) 19.2 (22:10) 23.1 10.56 (15:10) 3.33 (09:50) 0 0 0 0 0
10-10-2019 22 (15:30) 11 (00:00) 16.5 5.28 (17:20) 2.5 (17:20) 0 0 0 0 0
09-10-2019 19.3 (17:00) 13.5 (00:00) 16.4 6.11 (14:50) 3.06 (12:40) 3.6 0.4 0.8 2.2 0.2
08-10-2019 25.4 (14:50) 8.7 (00:00) 17 6.39 (20:00) 2.5 (20:00) 3.2 0 0 0 3.2
07-10-2019 21.8 (15:20) 11.3 (00:00) 16.5 0.56 (15:10) 0.28 (15:30) 0 0 0 0 0
06-10-2019 18.8 (15:50) 13.6 (00:00) 16.2 5 (16:20) 1.94 (16:30) 2.4 0 0 0.4 2
05-10-2019 20.6 (14:00) 14.6 (08:00) 17.6 0.56 (17:30) 0.28 (16:10) 0.2 0.2 0 0 0
04-10-2019 18.5 (14:30) 11.2 (00:00) 14.8 0.56 (14:40) 0 (14:40) 2.4 0.2 1 0.8 0.4
03-10-2019 22.1 (16:40) 11.4 (00:00) 16.8 0.83 (00:20) 0.28 (00:10) 1 1 0 0 0
02-10-2019 18.1 (15:20) 15.1 (00:00) 16.6 10.28 (06:50) 3.33 (12:40) 42.8 11.6 19 11.8 0.4
01-10-2019 23.5 (13:10) 15.3 (00:00) 19.4 8.89 (16:20) 3.61 (16:10) 3.2 0 0 0.4 2.8
30-09-2019 27.3 (15:40) 15.6 (00:00) 21.4 5.56 (15:10) 2.78 (15:10) 0.4 0.2 0.2 0 0
29-09-2019 29.1 (13:40) 11.3 (00:00) 20.2 6.94 (15:00) 3.33 (14:50) 0.2 0 0.2 0 0
28-09-2019 24.3 (17:10) 13.5 (00:00) 18.9 6.39 (00:10) 2.78 (16:30) 0.2 0 0.2 0 0
27-09-2019 24.6 (13:30) 13.7 (00:00) 19.2 5.83 (14:30) 2.78 (13:30) 0 0 0 0 0
26-09-2019 23.6 (13:50) 12.7 (00:00) 18.2 5.83 (15:20) 2.78 (15:40) 0 0 0 0 0
25-09-2019 21.7 (14:20) 15.1 (00:00) 18.4 6.39 (16:10) 2.78 (14:40) 0.2 0.2 0 0 0
24-09-2019 27.5 (13:40) 14.4 (00:00) 20.9 7.5 (15:40) 3.61 (15:40) 0.2 0 0 0 0.2
23-09-2019 25.2 (15:50) 13.5 (00:00) 19.4 4.72 (14:00) 1.94 (15:10) 0 0 0 0 0
22-09-2019 25 (00:20) 14.1 (00:00) 19.6 9.17 (02:30) 2.5 (00:20) 24.2 4.4 19.8 0 0
21-09-2019 27.3 (14:40) 21.8 (00:00) 24.5 10.83 (06:30) 3.89 (04:30) 0 0 0 0 0
20-09-2019 31.7 (16:50) 15.1 (00:00) 23.4 7.5 (22:30) 2.5 (22:30) 0 0 0 0 0
19-09-2019 24.9 (14:10) 15.7 (00:00) 20.3 5.83 (15:30) 2.78 (16:40) 0 0 0 0 0
18-09-2019 26.4 (14:30) 16.1 (00:00) 21.3 7.5 (16:00) 3.61 (16:50) 0 0 0 0 0
17-09-2019 27.6 (15:50) 15.6 (00:00) 21.6 5 (16:40) 2.5 (14:20) 0 0 0 0 0
16-09-2019 28 (15:10) 16.6 (00:00) 22.3 6.11 (17:00) 3.61 (17:20) 0.8 0.8 0 0 0
15-09-2019 28.1 (15:10) 16.1 (00:00) 22.1 6.39 (18:30) 2.78 (18:30) 0.4 0 0 0.4 0

Gráficas

Temp. máximas Temp. mínimas Temp. medias Precipitaciones Rachas de viento máximas Velocidades máximas media en intervalos de 10 minutos

Datos horarios

Fecha y hora oficial Temperatura (ºC) Velocidad del viento (km/h) Dirección del viento Racha (km/h) Dirección de racha Precipitación (mm) Presión (hPa) Tendencia (hPa) Humedad (%)
2019-10-14 23:00:00 13.8 3 Sudeste 10 Noroeste 0.8 -- -- 93
2019-10-14 22:00:00 14.8 2 Sudeste 27 Sudoeste 0.6 -- -- 87
2019-10-14 21:00:00 16.4 0 Calma 13 Oeste 0.8 -- -- 90
2019-10-14 20:00:00 17.2 4 Oeste 12 Nordeste 0 -- -- 85
2019-10-14 19:00:00 17.9 5 Nordeste 12 Norte 0 -- -- 82
2019-10-14 18:00:00 18.3 6 Norte 21 Norte 0 -- -- 83
2019-10-14 17:00:00 19.1 4 Norte 15 Norte 0 -- -- 85
2019-10-14 16:00:00 18.6 5 Nordeste 15 Norte 8.2 -- -- 87
2019-10-14 15:00:00 18.9 7 Norte 41 Oeste 0 -- -- 77
2019-10-14 14:00:00 25.8 14 Sur 33 Sudeste 0 -- -- 49
2019-10-14 13:00:00 26.3 5 Sudoeste 32 Sudoeste 0 -- -- 48
2019-10-14 12:00:00 25.1 10 Sudoeste 26 Este 0 -- -- 51
2019-10-14 11:00:00 24.5 6 Sudeste 24 Este 0 -- -- 52
2019-10-14 10:00:00 23.8 5 Oeste 28 Oeste 0 -- -- 53
2019-10-14 09:00:00 23.6 8 Sur 25 Sur 0 -- -- 54
2019-10-14 08:00:00 23.6 10 Sur 30 Sur 0 -- -- 54
2019-10-14 07:00:00 22.8 8 Sudoeste 29 Sudoeste 0 -- -- 55
2019-10-14 06:00:00 23.1 6 Sur 30 Sur 0 -- -- 56
2019-10-14 05:00:00 23.1 6 Sur 30 Sur 0 -- -- 55
2019-10-14 04:00:00 21.9 6 Sur 18 Sur 0 -- -- 58
2019-10-14 03:00:00 20.9 3 Sudeste 19 Sudoeste 0 -- -- 68
2019-10-14 02:00:00 24.1 8 Sudoeste 27 Sur 0 -- -- 54
2019-10-14 01:00:00 22.6 7 Oeste 30 Sudoeste 0 -- -- 63
2019-10-14 00:00:00 17.7 3 Oeste 10 Oeste 0 -- -- 86
2019-10-13 23:00:00 18.3 0 Calma 6 Este 0 -- -- 81
2019-10-13 22:00:00 21 3 Sudeste 10 Este 0 -- -- 70
2019-10-13 21:00:00 22 3 Este 17 Sudeste 0 -- -- 64
2019-10-13 20:00:00 21.6 3 Sudoeste 17 Sur 0 -- -- 70
2019-10-13 19:00:00 25.8 4 Sur 13 Sur 0 -- -- 51
2019-10-13 18:00:00 27 4 Sudeste 19 Sur 0 -- -- 57
2019-10-13 17:00:00 29.4 4 Sur 23 Sudoeste 0 -- -- 43
2019-10-13 16:00:00 28.2 11 Sudoeste 33 Sudoeste 0 -- -- 45
2019-10-13 15:00:00 28.5 9 Sur 31 Sudoeste 0 -- -- 45
2019-10-13 14:00:00 27.4 11 Sudoeste 32 Sur 0 -- -- 49
2019-10-13 13:00:00 26 11 Sur 34 Sur 0 -- -- 52
2019-10-13 12:00:00 26 8 Sudeste 44 Sudeste 0 -- -- 54
2019-10-13 11:00:00 24.6 9 Sur 32 Sudeste 0 -- -- 58
2019-10-13 10:00:00 22.9 10 Oeste 27 Sur 0 -- -- 62
2019-10-13 09:00:00 22 9 Sur 33 Sudeste 0 -- -- 64
2019-10-13 08:00:00 21.9 9 Sur 29 Sur 0 -- -- 63
2019-10-13 07:00:00 22 4 Noroeste 34 Sudeste 0 -- -- 61
2019-10-13 06:00:00 22.8 7 Sudeste 31 Sudeste 0 -- -- 58
2019-10-13 05:00:00 22.9 4 Sur 27 Sudeste 0 -- -- 58
2019-10-13 04:00:00 23.2 5 Sudeste 24 Sudoeste 0 -- -- 58
2019-10-13 03:00:00 23.7 4 Sudeste 27 Sur 0 -- -- 58
2019-10-13 02:00:00 22.8 5 Oeste 20 Este 0 -- -- 63
2019-10-13 01:00:00 22.2 4 Oeste 16 Sudoeste 0 -- -- 66
2019-10-13 00:00:00 23.1 5 Oeste 16 Oeste 0 -- -- 62
2019-10-12 23:00:00 22.5 3 Oeste 19 Sur 0 -- -- 65
2019-10-12 22:00:00 19.3 3 Este 9 Sudeste 0 -- -- 81
2019-10-12 21:00:00 22.3 3 Sur 22 Sur 0 -- -- 70
2019-10-12 20:00:00 26 7 Sur 33 Sur 0 -- -- 54
2019-10-12 19:00:00 24.3 5 Sur 21 Sur 0 -- -- 60
2019-10-12 18:00:00 25.5 3 Oeste 18 Sur 0 -- -- 57
2019-10-12 17:00:00 24.9 2 Sudeste 8 Este 0 -- -- 70
2019-10-12 16:00:00 26.3 3 Este 38 Sur 0 -- -- 56
2019-10-12 15:00:00 26.7 10 Sur 37 Sudoeste 0 -- -- 52
2019-10-12 14:00:00 24.5 6 Sudeste 17 Oeste 0 -- -- 62
2019-10-12 13:00:00 24.8 3 Sudeste 20 Sudoeste 0 -- -- 59
2019-10-12 12:00:00 24.1 9 Sudeste 37 Sudeste 0 -- -- 62
2019-10-12 11:00:00 23.9 12 Sur 27 Sudeste 0 -- -- 61
2019-10-12 10:00:00 23.9 10 Sur 32 Sudeste 0 -- -- 61
2019-10-12 09:00:00 23.6 12 Sudeste 30 Sur 0 -- -- 62
2019-10-12 08:00:00 23.4 7 Este 25 Sudeste 0 -- -- 62
2019-10-12 07:00:00 23.9 10 Sudeste 25 Sur 0 -- -- 62
2019-10-12 06:00:00 24 8 Sudeste 24 Sur 0 -- -- 62
2019-10-12 05:00:00 23.3 3 Sudeste 19 Sur 0 -- -- 65
2019-10-12 04:00:00 22.2 3 Sur 14 Sur 0 -- -- 71
2019-10-12 03:00:00 21.6 3 Sudeste 10 Sur 0 -- -- 72
2019-10-12 02:00:00 22.4 3 Nordeste 15 Sudoeste 0 -- -- 68
2019-10-12 01:00:00 23.4 4 Sudeste 15 Nordeste 0 -- -- 65
2019-10-12 00:00:00 21.4 10 Sudeste 26 Este 0 -- -- 70
2019-10-11 23:00:00 17.1 2 Este 4 Sudoeste 0 -- -- 94
2019-10-11 22:00:00 16.9 0 Calma 5 Oeste 0 -- -- 93
2019-10-11 21:00:00 17.6 0 Calma 4 Sudeste 0 -- -- 89
2019-10-11 20:00:00 19.2 2 Sudeste 5 Sudeste 0 -- -- 85
2019-10-11 19:00:00 22.1 2 Sudeste 6 Sur 0 -- -- 77
2019-10-11 18:00:00 25.7 2 Sudeste 8 Sur 0 -- -- 66
2019-10-11 17:00:00 28.7 3 Sur 19 Sudoeste 0 -- -- 48
2019-10-11 16:00:00 28.4 4 Sudeste 13 Este 0 -- -- 46
2019-10-11 15:00:00 27.2 8 Sudoeste 25 Sudoeste 0 -- -- 49
2019-10-11 14:00:00 26.4 8 Sur 27 Sur 0 -- -- 47
2019-10-11 13:00:00 25.2 7 Sur 24 Sur 0 -- -- 50
2019-10-11 12:00:00 23.9 11 Sudeste 30 Sur 0 -- -- 50
2019-10-11 11:00:00 22.5 9 Sur 23 Sur 0 -- -- 50
2019-10-11 10:00:00 21.4 10 Sur 28 Sudeste 0 -- -- 53
2019-10-11 09:00:00 18.9 7 Sur 24 Sur 0 -- -- 57
2019-10-11 08:00:00 18.6 10 Sur 24 Sudoeste 0 -- -- 58
2019-10-11 07:00:00 11.3 0 Calma 10 Nordeste 0 -- -- 97
2019-10-11 06:00:00 10.3 3 Sudeste 12 Nordeste 0 -- -- 98
2019-10-11 05:00:00 9.8 0 Calma 4 Sudeste 0 -- -- 97
2019-10-11 04:00:00 11 0 Calma 4 Este 0 -- -- 97
2019-10-11 03:00:00 11.5 0 Calma 4 Nordeste 0 -- -- 98
2019-10-11 02:00:00 11.8 0 Calma 4 Noroeste 0 -- -- 98
2019-10-11 01:00:00 12 0 Calma 3 Nordeste 0 -- -- 98
2019-10-11 00:00:00 11.3 0 Calma 2 Sur 0 -- -- 97
2019-10-10 23:00:00 11.1 0 Calma 3 Sudeste 0 -- -- 95
2019-10-10 22:00:00 12 0 Calma 3 Este 0 -- -- 94
2019-10-10 21:00:00 13 0 Calma 4 Sudeste 0 -- -- 92
2019-10-10 20:00:00 14.6 2 Sudeste 6 Sudoeste 0 -- -- 88
2019-10-10 19:00:00 18 2 Oeste 12 Noroeste 0 -- -- 76
2019-10-10 18:00:00 19.5 8 Noroeste 19 Noroeste 0 -- -- 69
2019-10-10 17:00:00 20.3 8 Norte 18 Norte 0 -- -- 65
2019-10-10 16:00:00 21 7 Norte 17 Noroeste 0 -- -- 65
2019-10-10 15:00:00 21.7 0 Calma 2 Oeste 0 -- -- 58
2019-10-10 14:00:00 20 0 Calma 0 Calma 0 -- -- 76
2019-10-10 13:00:00 19.2 0 Calma 0 Calma 0 -- -- 67
2019-10-10 12:00:00 17.2 0 Calma 2 Este 0 -- -- 79
2019-10-10 11:00:00 14.2 0 Calma 2 Oeste 0 -- -- 89
2019-10-10 10:00:00 13.2 0 Calma 0 Calma 0 -- -- 94
2019-10-10 09:00:00 12.1 0 Calma 0 Calma 0 -- -- 96
2019-10-10 08:00:00 12.3 0 Calma 0 Calma 0 -- -- 96
2019-10-10 07:00:00 12.6 0 Calma 0 Calma 0 -- -- 96
2019-10-10 06:00:00 12.8 0 Calma 0 Calma 0 -- -- 97
2019-10-10 05:00:00 12.7 0 Calma 0 Calma 0 -- -- 97
2019-10-10 04:00:00 12.9 0 Calma 2 Este 0 -- -- 97
2019-10-10 03:00:00 13 0 Calma 3 Norte 0 -- -- 96
2019-10-10 02:00:00 13.3 0 Calma 4 Sudeste 0 -- -- 97
2019-10-10 01:00:00 13.3 0 Calma 2 Sur 0 -- -- 96
2019-10-10 00:00:00 13.5 0 Calma 3 Noroeste 0 -- -- 95
2019-10-09 23:00:00 13.7 0 Calma 4 Noroeste 0 -- -- 95
2019-10-09 22:00:00 13.8 0 Calma 4 Este 0.2 -- -- 96
2019-10-09 21:00:00 13.7 0 Calma 3 Este 0 -- -- 93
2019-10-09 20:00:00 15.4 0 Calma 6 Sudeste 0 -- -- 90
2019-10-09 19:00:00 16.8 2 Sudoeste 20 Oeste 0 -- -- 83
2019-10-09 18:00:00 18 6 Oeste 20 Sudoeste 0 -- -- 74
2019-10-09 17:00:00 19.3 9 Sudoeste 18 Oeste 0 -- -- 70
2019-10-09 16:00:00 17.6 4 Sur 22 Oeste 0 -- -- 76
2019-10-09 15:00:00 16 9 Noroeste 22 Noroeste 1.4 -- -- 83
2019-10-09 14:00:00 17.9 3 Este 11 Noroeste 0 -- -- 78
2019-10-09 13:00:00 16 5 Oeste 19 Oeste 0.8 -- -- 88
2019-10-09 12:00:00 17.7 0 Calma 0 Calma 0 -- -- 82
2019-10-09 11:00:00 16.5 0 Calma 0 Calma 0 -- -- 89
2019-10-09 10:00:00 15.5 0 Calma 0 Calma 0 -- -- 96
2019-10-09 09:00:00 15 0 Calma 0 Calma 0 -- -- 95
2019-10-09 08:00:00 15.2 0 Calma 0 Calma 0.2 -- -- 96
2019-10-09 07:00:00 15.2 0 Calma 0 Calma 0.6 -- -- 96
2019-10-09 06:00:00 15.4 0 Calma 0 Calma 0.2 -- -- 96
2019-10-09 05:00:00 15.6 0 Calma 0 Calma 0.2 -- -- 96
2019-10-09 04:00:00 15.6 0 Calma 2 Noroeste 0 -- -- 96
2019-10-09 03:00:00 15.8 2 Nordeste 4 Nordeste 0 -- -- 96
2019-10-09 02:00:00 15.9 0 Calma 5 Sur 0 -- -- 95
2019-10-09 01:00:00 16.1 0 Calma 12 Oeste 0 -- -- 93
2019-10-09 00:00:00 16.7 0 Calma 8 Noroeste 0.2 -- -- 93
2019-10-08 23:00:00 17.4 3 Oeste 15 Norte 0.6 -- -- 93
2019-10-08 22:00:00 18.3 4 Norte 14 Norte 2.4 -- -- 91
2019-10-08 21:00:00 19.4 0 Calma 6 Norte 0 -- -- 88
2019-10-08 20:00:00 20.5 9 Oeste 23 Oeste 0 -- -- 81
2019-10-08 19:00:00 21.3 0 Calma 5 Sudeste 0 -- -- 80
2019-10-08 18:00:00 22.8 2 Sudeste 6 Sudeste 0 -- -- 68
2019-10-08 17:00:00 24.1 3 Norte 16 Nordeste 0 -- -- 48
2019-10-08 16:00:00 25 6 Norte 15 Noroeste 0 -- -- 47
2019-10-08 15:00:00 25.3 0 Calma 0 Calma 0 -- -- 50
2019-10-08 14:00:00 23.5 0 Calma 0 Calma 0 -- -- 54
2019-10-08 13:00:00 21.3 0 Calma 0 Calma 0 -- -- 58
2019-10-08 12:00:00 18.1 0 Calma 0 Calma 0 -- -- 67
2019-10-08 11:00:00 15.1 0 Calma 0 Calma 0 -- -- 77
2019-10-08 10:00:00 11.7 0 Calma 0 Calma 0 -- -- 98
2019-10-08 09:00:00 8.8 0 Calma -- -- 0 -- -- 98
2019-10-08 08:00:00 8.9 0 Calma 0 Calma 0 -- -- 97
2019-10-08 07:00:00 9.1 0 Calma 0 Calma 0 -- -- 97
2019-10-08 06:00:00 9.6 0 Calma 0 Calma 0 -- -- 97
2019-10-08 05:00:00 10.1 0 Calma 0 Calma 0 -- -- 97
2019-10-08 04:00:00 11 0 Calma 0 Calma 0 -- -- 98
2019-10-08 03:00:00 11.2 0 Calma 0 Calma 0 -- -- 97
2019-10-08 02:00:00 11.4 0 Calma 0 Calma 0 -- -- 98
2019-10-08 01:00:00 11 0 Calma 0 Calma 0 -- -- 97
2019-10-08 00:00:00 11.3 0 Calma 0 Calma 0 -- -- 96
2019-10-07 23:00:00 11.9 0 Calma 0 Calma 0 -- -- 94
2019-10-07 22:00:00 12.8 0 Calma 0 Calma 0 -- -- 94
2019-10-07 21:00:00 13.9 0 Calma 0 Calma 0 -- -- 92
2019-10-07 20:00:00 15.5 0 Calma 0 Calma 0 -- -- 87
2019-10-07 19:00:00 18 0 Calma 0 Calma 0 -- -- 81
2019-10-07 18:00:00 21.3 0 Calma 0 Calma 0 -- -- 68
2019-10-07 17:00:00 20.7 0 Calma 0 Calma 0 -- -- 65
2019-10-07 16:00:00 21.2 0 Calma 2 Oeste 0 -- -- 64
2019-10-07 15:00:00 21.5 0 Calma 0 Calma 0 -- -- 62
2019-10-07 14:00:00 19.5 0 Calma 0 Calma 0 -- -- 69
2019-10-07 13:00:00 18.1 0 Calma 0 Calma 0 -- -- 81
2019-10-07 12:00:00 15.7 0 Calma 0 Calma 0 -- -- 92
2019-10-07 11:00:00 13.7 0 Calma 0 Calma 0 -- -- 96
2019-10-07 10:00:00 12.9 0 Calma 0 Calma 0 -- -- 98
2019-10-07 09:00:00 12.5 0 Calma 0 Calma 0 -- -- 98
2019-10-07 08:00:00 12.6 0 Calma 0 Calma 0 -- -- 97
2019-10-07 07:00:00 12.8 0 Calma 0 Calma 0 -- -- 97
2019-10-07 06:00:00 13 0 Calma 0 Calma 0 -- -- 98
2019-10-07 05:00:00 13 0 Calma 0 Calma 0 -- -- 98
2019-10-07 04:00:00 13.2 0 Calma 0 Calma 0 -- -- 98
2019-10-07 03:00:00 13.4 0 Calma 0 Calma 0 -- -- 98
2019-10-07 02:00:00 13.6 0 Calma 0 Calma 0 -- -- 98
2019-10-07 01:00:00 13.7 0 Calma 0 Calma 0 -- -- 97
2019-10-07 00:00:00 13.6 0 Calma 0 Calma 0 -- -- 96
2019-10-06 23:00:00 14.2 0 Calma 2 Sudeste 0 -- -- 95
2019-10-06 22:00:00 15.3 0 Calma 4 Nordeste 0 -- -- 95
2019-10-06 21:00:00 16.2 0 Calma 5 Este 0.4 -- -- 96
2019-10-06 20:00:00 16.5 0 Calma 8 Sudeste 0.4 -- -- 94
2019-10-06 19:00:00 17.4 3 Oeste 7 Oeste 1.2 -- -- 90
2019-10-06 18:00:00 18.1 2 Sur 5 Noroeste 0 -- -- 85
2019-10-06 17:00:00 18 2 Oeste 18 Sudoeste 0.2 -- -- 86
2019-10-06 16:00:00 18.7 0 Calma 2 Oeste 0 -- -- 81
2019-10-06 15:00:00 18.2 0 Calma 0 Calma 0 -- -- 89
2019-10-06 14:00:00 18 0 Calma 0 Calma 0.2 -- -- 88
2019-10-06 13:00:00 18.1 0 Calma 0 Calma 0 -- -- 84
2019-10-06 12:00:00 17.1 0 Calma 0 Calma 0 -- -- 86
2019-10-06 11:00:00 15.8 0 Calma 0 Calma 0 -- -- 91
2019-10-06 10:00:00 14.9 0 Calma 0 Calma 0 -- -- 96
2019-10-06 09:00:00 14.1 0 Calma 0 Calma 0 -- -- 97
2019-10-06 08:00:00 14 0 Calma 0 Calma 0 -- -- 95
2019-10-06 07:00:00 14.4 0 Calma -- -- 0 -- -- 96
2019-10-06 06:00:00 14.7 0 Calma 0 Calma 0 -- -- 94
2019-10-06 05:00:00 15.3 0 Calma -- -- 0 -- -- 95
2019-10-06 04:00:00 15.7 0 Calma 0 Calma 0 -- -- 95
2019-10-06 03:00:00 15.6 0 Calma 0 Calma 0 -- -- 96
2019-10-06 02:00:00 15.7 0 Calma -- -- 0 -- -- 95
2019-10-06 01:00:00 15.7 0 Calma 0 Calma 0 -- -- 95
2019-10-06 00:00:00 16.2 0 Calma 0 Calma 0 -- -- 93
2019-10-05 23:00:00 16.5 0 Calma 0 Calma 0 -- -- 92
2019-10-05 22:00:00 16.7 0 Calma -- -- 0 -- -- 91
2019-10-05 21:00:00 17 0 Calma 0 Calma 0 -- -- 89
2019-10-05 20:00:00 18 0 Calma 0 Calma 0 -- -- 81
2019-10-05 19:00:00 18.8 0 Calma 0 Calma 0 -- -- 76
2019-10-05 18:00:00 19.8 0 Calma 2 Noroeste 0 -- -- 71
2019-10-05 17:00:00 19.8 0 Calma 0 Calma 0 -- -- 71
2019-10-05 16:00:00 20.3 0 Calma 2 Nordeste 0 -- -- 68
2019-10-05 15:00:00 20 0 Calma 0 Calma 0 -- -- 73
2019-10-05 14:00:00 20.6 0 Calma 0 Calma 0 -- -- 71
2019-10-05 13:00:00 19.7 0 Calma 0 Calma 0 -- -- 77
2019-10-05 12:00:00 18.1 0 Calma 0 Calma 0 -- -- 85
2019-10-05 11:00:00 16.4 0 Calma 0 Calma 0 -- -- 93
2019-10-05 10:00:00 15.3 0 Calma -- -- 0 -- -- 97
2019-10-05 09:00:00 14.8 0 Calma -- -- 0 -- -- 97
2019-10-05 08:00:00 14.6 0 Calma 0 Calma 0 -- -- 96
2019-10-05 07:00:00 14.7 0 Calma 0 Calma 0 -- -- 97
2019-10-05 06:00:00 14.9 0 Calma 0 Calma 0 -- -- 97
2019-10-05 05:00:00 15 0 Calma 0 Calma 0 -- -- 97
2019-10-05 04:00:00 15.1 0 Calma 0 Calma 0 -- -- 96
2019-10-05 03:00:00 15.3 0 Calma -- -- 0 -- -- 96
2019-10-05 02:00:00 15.6 0 Calma -- -- 0 -- -- 97
2019-10-05 01:00:00 15.6 0 Calma -- -- 0.2 -- -- 96
2019-10-05 00:00:00 15.9 0 Calma -- -- 0 -- -- 96
2019-10-04 23:00:00 16.1 0 Calma 0 Calma 0 -- -- 96
2019-10-04 22:00:00 16.3 0 Calma -- -- 0.2 -- -- 95
2019-10-04 21:00:00 16.8 0 Calma -- -- 0.2 -- -- 94
2019-10-04 20:00:00 17.1 0 Calma -- -- 0 -- -- 93
2019-10-04 19:00:00 17.6 0 Calma 0 Calma 0 -- -- 88
2019-10-04 18:00:00 17.7 0 Calma 0 Calma 0 -- -- 88
2019-10-04 17:00:00 17.9 0 Calma 0 Calma 0 -- -- 86
2019-10-04 16:00:00 18.3 0 Calma 0 Calma 0 -- -- 85
2019-10-04 15:00:00 18.3 0 Calma 2 Nordeste 0 -- -- 87
2019-10-04 14:00:00 18.2 0 Calma 0 Calma 0.4 -- -- 93
2019-10-04 13:00:00 16.8 0 Calma 0 Calma 0.4 -- -- 95
2019-10-04 12:00:00 16 0 Calma 0 Calma 0.6 -- -- 95
2019-10-04 11:00:00 15.3 0 Calma 0 Calma 0.2 -- -- 93
2019-10-04 10:00:00 14.6 0 Calma 0 Calma 0 -- -- 95
2019-10-04 09:00:00 14.1 0 Calma 0 Calma 0 -- -- 96
2019-10-04 08:00:00 13.8 0 Calma 0 Calma 0.2 -- -- 96
2019-10-04 07:00:00 13.7 0 Calma 0 Calma 0 -- -- 96
2019-10-04 06:00:00 13.4 0 Calma 0 Calma 0.2 -- -- 97
2019-10-04 05:00:00 13 0 Calma -- -- 0 -- -- 97
2019-10-04 04:00:00 12.2 0 Calma -- -- 0 -- -- 97
2019-10-04 03:00:00 11.4 0 Calma 0 Calma 0 -- -- 96
2019-10-04 02:00:00 11.7 0 Calma -- -- 0 -- -- 97
2019-10-04 01:00:00 11.3 0 Calma 0 Calma 0 -- -- 96
2019-10-04 00:00:00 11.4 0 Calma 0 Calma 0 -- -- 96
2019-10-03 23:00:00 11.6 0 Calma 0 Calma 0 -- -- 94
2019-10-03 22:00:00 12.3 0 Calma 0 Calma 0 -- -- 93
2019-10-03 21:00:00 13.5 0 Calma 0 Calma 0 -- -- 90
2019-10-03 20:00:00 15.3 0 Calma 0 Calma 0 -- -- 86
2019-10-03 19:00:00 19.2 0 Calma 0 Calma 0 -- -- 68
2019-10-03 18:00:00 20.9 0 Calma 2 Noroeste 0 -- -- 64
2019-10-03 17:00:00 22.1 0 Calma 2 Nordeste 0 -- -- 58
2019-10-03 16:00:00 21.6 0 Calma 2 Noroeste 0 -- -- 60
2019-10-03 15:00:00 21.7 0 Calma 0 Calma 0 -- -- 58
2019-10-03 14:00:00 20.6 0 Calma 0 Calma 0 -- -- 62
2019-10-03 13:00:00 19.6 0 Calma 0 Calma 0 -- -- 66
2019-10-03 12:00:00 17.8 0 Calma 0 Calma 0 -- -- 79
2019-10-03 11:00:00 16 0 Calma 0 Calma 0 -- -- 87
2019-10-03 10:00:00 14.6 0 Calma 0 Calma 0 -- -- 95
2019-10-03 09:00:00 13.8 0 Calma 0 Calma 0 -- -- 98
2019-10-03 08:00:00 14 0 Calma 0 Calma 0 -- -- 98
2019-10-03 07:00:00 14.3 0 Calma 0 Calma 0 -- -- 98
2019-10-03 06:00:00 14.4 0 Calma 0 Calma 0 -- -- 98
2019-10-03 05:00:00 14.8 0 Calma 0 Calma 0 -- -- 98
2019-10-03 04:00:00 14.8 0 Calma 0 Calma 0 -- -- 97
2019-10-03 03:00:00 15.1 0 Calma 0 Calma 0 -- -- 98
2019-10-03 02:00:00 15.1 0 Calma 2 Oeste 0 -- -- 97
2019-10-03 01:00:00 15.3 0 Calma 3 Sudeste 1 -- -- 97
2019-10-03 00:00:00 15.2 0 Calma 4 Nordeste 0 -- -- 97
2019-10-02 23:00:00 15.2 0 Calma 0 Calma 0.2 -- -- 97
2019-10-02 22:00:00 15.4 0 Calma 0 Calma 0.2 -- -- 96
2019-10-02 21:00:00 15.7 0 Calma 4 Sudeste 0 -- -- 95
2019-10-02 20:00:00 16.2 0 Calma 4 Nordeste 0 -- -- 94
2019-10-02 19:00:00 16.8 0 Calma 3 Oeste 0 -- -- 92
2019-10-02 18:00:00 16.9 3 Oeste 15 Oeste 0.4 -- -- 90
2019-10-02 17:00:00 17 7 Oeste 21 Norte 0.8 -- -- 89
2019-10-02 16:00:00 18 6 Norte 15 Noroeste 0 -- -- 81
2019-10-02 15:00:00 17.2 6 Noroeste 22 Noroeste 0 -- -- 88
2019-10-02 14:00:00 16.8 5 Norte 18 Noroeste 8.2 -- -- 94
2019-10-02 13:00:00 16.4 5 Oeste 26 Oeste 2.4 -- -- 94
2019-10-02 12:00:00 16.3 4 Sudoeste 16 Oeste 1.6 -- -- 94
2019-10-02 11:00:00 16 4 Oeste 15 Noroeste 1.8 -- -- 95
2019-10-02 10:00:00 15.6 4 Oeste 19 Sudoeste 1.2 -- -- 95
2019-10-02 09:00:00 15.3 7 Sudoeste 25 Oeste 5 -- -- 94
2019-10-02 08:00:00 15.3 5 Sudoeste 21 Oeste 5.6 -- -- 93
2019-10-02 07:00:00 15.5 6 Noroeste 37 Sudoeste 3.8 -- -- 94
2019-10-02 06:00:00 15.2 3 Sur 14 Noroeste 4.6 -- -- 94
2019-10-02 05:00:00 15.6 5 Oeste 23 Oeste 1.4 -- -- 92
2019-10-02 04:00:00 15.8 2 Norte 17 Noroeste 2.6 -- -- 94
2019-10-02 03:00:00 16.2 7 Oeste 21 Oeste 3 -- -- 92
2019-10-02 02:00:00 16.4 3 Este 7 Sur 0 -- -- 93
2019-10-02 01:00:00 16.5 4 Nordeste 10 Nordeste 0 -- -- 93
2019-10-02 00:00:00 16.9 0 Calma 20 Oeste 0.6 -- -- 92
2019-10-01 23:00:00 16.9 3 Sudeste 9 Sudeste 0.8 -- -- 94
2019-10-01 22:00:00 17.1 2 Sur 7 Este 0.6 -- -- 94
2019-10-01 21:00:00 17.4 0 Calma 9 Este 0.2 -- -- 94
2019-10-01 20:00:00 17.8 3 Sudeste 8 Este 0.4 -- -- 92
2019-10-01 19:00:00 18.5 0 Calma 10 Sudoeste 0.2 -- -- 89
2019-10-01 18:00:00 19.2 4 Sudeste 21 Noroeste 0.4 -- -- 86
2019-10-01 17:00:00 21 8 Noroeste 32 Oeste 0 -- -- 72
2019-10-01 16:00:00 21.9 8 Oeste 22 Oeste 0 -- -- 70
2019-10-01 15:00:00 22 5 Oeste 16 Oeste 0 -- -- 74
2019-10-01 14:00:00 22.5 11 Noroeste 22 Noroeste 0 -- -- 70
2019-10-01 13:00:00 23.4 7 Oeste 20 Oeste 0 -- -- 69
2019-10-01 12:00:00 21.2 0 Calma 5 Este 0 -- -- 80
2019-10-01 11:00:00 19 4 Nordeste 7 Nordeste 0 -- -- 93
2019-10-01 10:00:00 16.8 2 Oeste 8 Oeste 0 -- -- 97
2019-10-01 09:00:00 16.2 0 Calma 3 Sudeste 0 -- -- 97
2019-10-01 08:00:00 16 0 Calma 4 Sudeste 0 -- -- 97
2019-10-01 07:00:00 16 0 Calma 0 Calma 0 -- -- 97
2019-10-01 06:00:00 16.1 0 Calma 0 Calma 0 -- -- 97
2019-10-01 05:00:00 16.1 0 Calma 0 Calma 0 -- -- 97
2019-10-01 04:00:00 16 0 Calma 0 Calma 0 -- -- 97
2019-10-01 03:00:00 15.7 0 Calma 0 Calma 0 -- -- 96
2019-10-01 02:00:00 15.3 0 Calma 0 Calma 0 -- -- 95
2019-10-01 01:00:00 15.6 0 Calma 3 Sudeste 0 -- -- 95
2019-10-01 00:00:00 16 0 Calma 4 Sudeste 0 -- -- 94
2019-09-30 23:00:00 16.6 0 Calma 4 Sudeste 0 -- -- 93
2019-09-30 22:00:00 17.4 2 Sudeste 4 Sudeste 0 -- -- 91
2019-09-30 21:00:00 18.6 0 Calma 5 Sudeste 0 -- -- 88
2019-09-30 20:00:00 21 0 Calma 9 Noroeste 0 -- -- 81
2019-09-30 19:00:00 24.2 2 Sudoeste 12 Noroeste 0 -- -- 67
2019-09-30 18:00:00 25.8 6 Noroeste 17 Noroeste 0 -- -- 62
2019-09-30 17:00:00 26.9 6 Norte 20 Noroeste 0 -- -- 61
2019-09-30 16:00:00 27.2 8 Norte 20 Noroeste 0 -- -- 61
2019-09-30 15:00:00 27.1 9 Noroeste 15 Noroeste 0 -- -- 60
2019-09-30 14:00:00 26.7 3 Sudoeste 8 Sur 0 -- -- 60
2019-09-30 13:00:00 25.4 3 Sudoeste 7 Sur 0 -- -- 64
2019-09-30 12:00:00 23.3 0 Calma 0 Calma 0 -- -- 71
2019-09-30 11:00:00 20.6 0 Calma 0 Calma 0.2 -- -- 79
2019-09-30 10:00:00 17.7 0 Calma 0 Calma 0 -- -- 89
2019-09-30 09:00:00 15.8 0 Calma 0 Calma 0 -- -- 95
2019-09-30 08:00:00 15.8 0 Calma 0 Calma 0 -- -- 94
2019-09-30 07:00:00 16 0 Calma 0 Calma 0 -- -- 94
2019-09-30 06:00:00 16.3 0 Calma 0 Calma 0.2 -- -- 92
2019-09-30 05:00:00 16.4 0 Calma 0 Calma 0 -- -- 91
2019-09-30 04:00:00 16.3 0 Calma 3 Sudeste 0 -- -- 91
2019-09-30 03:00:00 16.2 0 Calma 4 Sur 0 -- -- 90
2019-09-30 02:00:00 15.8 0 Calma 3 Sudeste 0 -- -- 91
2019-09-30 01:00:00 16.1 2 Sudeste 4 Sudeste 0 -- -- 88
2019-09-30 00:00:00 16.4 0 Calma 2 Sudeste 0 -- -- 88
2019-09-29 23:00:00 15.7 0 Calma 3 Sur 0 -- -- 90
2019-09-29 22:00:00 14.9 0 Calma 4 Sudeste 0 -- -- 87
2019-09-29 21:00:00 16.3 3 Sudeste 5 Sudeste 0 -- -- 82
2019-09-29 20:00:00 18.3 2 Sudeste 6 Sudeste 0 -- -- 75
2019-09-29 19:00:00 23.1 3 Oeste 18 Oeste 0 -- -- 52
2019-09-29 18:00:00 25.1 8 Norte 20 Noroeste 0 -- -- 42
2019-09-29 17:00:00 26.8 8 Norte 19 Noroeste 0 -- -- 37
2019-09-29 16:00:00 27 8 Norte 21 Noroeste 0 -- -- 35
2019-09-29 15:00:00 26.6 8 Nordeste 25 Nordeste 0 -- -- 47
2019-09-29 14:00:00 28.1 10 Noroeste 21 Noroeste 0 -- -- 56
2019-09-29 13:00:00 28.1 7 Sur 17 Sudoeste 0 -- -- 51
2019-09-29 12:00:00 26.4 6 Sur 15 Sudoeste 0 -- -- 54
2019-09-29 11:00:00 23.1 4 Sudoeste 12 Sur 0 -- -- 73
2019-09-29 10:00:00 16.4 0 Calma 4 Este 0.2 -- -- 99
2019-09-29 09:00:00 12.5 0 Calma 5 Sur 0 -- -- 99
2019-09-29 08:00:00 11.4 0 Calma 5 Sur 0 -- -- 98
2019-09-29 07:00:00 11.4 0 Calma 4 Sudoeste 0 -- -- 97
2019-09-29 06:00:00 11.8 0 Calma 4 Oeste 0 -- -- 97
2019-09-29 05:00:00 12.2 0 Calma 4 Sudeste 0 -- -- 96
2019-09-29 04:00:00 13.6 0 Calma 2 Sur 0 -- -- 97
2019-09-29 03:00:00 14.3 0 Calma 3 Nordeste 0 -- -- 97
2019-09-29 02:00:00 14.5 0 Calma 2 Norte 0 -- -- 97
2019-09-29 01:00:00 13.8 0 Calma 3 Sudeste 0 -- -- 97
2019-09-29 00:00:00 13.5 0 Calma 4 Sudeste 0 -- -- 95
2019-09-28 23:00:00 14.3 0 Calma 3 Sudeste 0 -- -- 93
2019-09-28 22:00:00 15.4 0 Calma 4 Sudeste 0 -- -- 91
2019-09-28 21:00:00 16.8 3 Sudeste 5 Sur 0 -- -- 89
2019-09-28 20:00:00 19.2 0 Calma 13 Norte 0 -- -- 81
2019-09-28 19:00:00 21.6 7 Noroeste 15 Noroeste 0 -- -- 75
2019-09-28 18:00:00 23.3 5 Sudeste 14 Sudeste 0 -- -- 68
2019-09-28 17:00:00 24.2 5 Noroeste 17 Noroeste 0 -- -- 67
2019-09-28 16:00:00 23.4 8 Noroeste 22 Noroeste 0 -- -- 68
2019-09-28 15:00:00 23.5 7 Norte 17 Noroeste 0 -- -- 67
2019-09-28 14:00:00 23 8 Noroeste 15 Noroeste 0 -- -- 67
2019-09-28 13:00:00 21.7 0 Calma 6 Noroeste 0 -- -- 68
2019-09-28 12:00:00 20.3 0 Calma 4 Nordeste 0 -- -- 75
2019-09-28 11:00:00 19.3 0 Calma 4 Nordeste 0 -- -- 79
2019-09-28 10:00:00 16.7 0 Calma 4 Noroeste 0 -- -- 91
2019-09-28 09:00:00 16 0 Calma 2 Sur 0 -- -- 95
2019-09-28 08:00:00 15.8 0 Calma 3 Norte 0.2 -- -- 95
2019-09-28 07:00:00 15.9 0 Calma 4 Noroeste 0 -- -- 94
2019-09-28 06:00:00 16 0 Calma 3 Noroeste 0 -- -- 94
2019-09-28 05:00:00 16 0 Calma 2 Sur 0 -- -- 94
2019-09-28 04:00:00 16.1 0 Calma 4 Noroeste 0 -- -- 94
2019-09-28 03:00:00 16.1 0 Calma 4 Este 0 -- -- 93
2019-09-28 02:00:00 16.1 4 Noroeste 6 Noroeste 0 -- -- 92
2019-09-28 01:00:00 16.5 0 Calma 23 Noroeste 0 -- -- 90
2019-09-28 00:00:00 17.6 0 Calma 13 Noroeste 0 -- -- 92
2019-09-27 23:00:00 18.2 6 Oeste 14 Oeste 0 -- -- 89
2019-09-27 22:00:00 18.4 0 Calma 5 Sudeste 0 -- -- 89
2019-09-27 21:00:00 18.7 2 Sur 9 Nordeste 0 -- -- 88
2019-09-27 20:00:00 19.5 2 Sudoeste 12 Noroeste 0 -- -- 81
2019-09-27 19:00:00 21.1 6 Norte 15 Noroeste 0 -- -- 76
2019-09-27 18:00:00 22.3 4 Norte 18 Noroeste 0 -- -- 70
2019-09-27 17:00:00 23.1 7 Norte 17 Norte 0 -- -- 67
2019-09-27 16:00:00 22.6 5 Norte 16 Noroeste 0 -- -- 68
2019-09-27 15:00:00 22.6 8 Norte 21 Norte 0 -- -- 70
2019-09-27 14:00:00 23.7 7 Noroeste 20 Oeste 0 -- -- 61
2019-09-27 13:00:00 24.2 7 Oeste 18 Noroeste 0 -- -- 60
2019-09-27 12:00:00 21.3 2 Sur 5 Sudoeste 0 -- -- 70
2019-09-27 11:00:00 18.2 0 Calma 4 Sudeste 0 -- -- 82
2019-09-27 10:00:00 14.5 0 Calma 3 Sur 0 -- -- 97
2019-09-27 09:00:00 14 0 Calma 4 Noroeste 0 -- -- 97
2019-09-27 08:00:00 14.5 0 Calma 3 Noroeste 0 -- -- 97
2019-09-27 07:00:00 14.6 0 Calma 4 Noroeste 0 -- -- 97
2019-09-27 06:00:00 14.8 0 Calma 3 Norte 0 -- -- 97
2019-09-27 05:00:00 14.9 0 Calma 4 Sur 0 -- -- 97
2019-09-27 04:00:00 14.3 0 Calma 3 Sudeste 0 -- -- 97
2019-09-27 03:00:00 13.8 0 Calma 4 Sudeste 0 -- -- 94
2019-09-27 02:00:00 14.8 0 Calma 5 Sudeste 0 -- -- 92
2019-09-27 01:00:00 16.4 2 Sudeste 4 Sudeste 0 -- -- 90
2019-09-27 00:00:00 18.1 0 Calma 4 Sudeste 0 -- -- 90
2019-09-26 23:00:00 18.4 0 Calma 4 Sudoeste 0 -- -- 89
2019-09-26 22:00:00 18.7 0 Calma 4 Norte 0 -- -- 88
2019-09-26 21:00:00 19.4 0 Calma 10 Norte 0 -- -- 82
2019-09-26 20:00:00 19.6 4 Noroeste 13 Noroeste 0 -- -- 80
2019-09-26 19:00:00 20.2 5 Noroeste 17 Norte 0 -- -- 77
2019-09-26 18:00:00 21.1 9 Norte 18 Norte 0 -- -- 72
2019-09-26 17:00:00 22.5 8 Norte 18 Noroeste 0 -- -- 70
2019-09-26 16:00:00 23 9 Noroeste 21 Noroeste 0 -- -- 69
2019-09-26 15:00:00 23.5 6 Norte 19 Noroeste 0 -- -- 66
2019-09-26 14:00:00 23.6 8 Norte 18 Noroeste 0 -- -- 68
2019-09-26 13:00:00 23.3 3 Sudoeste 8 Sur 0 -- -- 64
2019-09-26 12:00:00 20.7 0 Calma 4 Sur 0 -- -- 71
2019-09-26 11:00:00 17.3 0 Calma 4 Sudeste 0 -- -- 84
2019-09-26 10:00:00 14.8 0 Calma 3 Sur 0 -- -- 93
2019-09-26 09:00:00 13.6 0 Calma 3 Sudeste 0 -- -- 97
2019-09-26 08:00:00 13.1 0 Calma 4 Sur 0 -- -- 97
2019-09-26 07:00:00 12.7 0 Calma 3 Noroeste 0 -- -- 96
2019-09-26 06:00:00 12.9 0 Calma 4 Sudeste 0 -- -- 95
2019-09-26 05:00:00 13.6 0 Calma 4 Sudeste 0 -- -- 94
2019-09-26 04:00:00 14.6 3 Sudeste 4 Sudeste 0 -- -- 94
2019-09-26 03:00:00 15.4 0 Calma 4 Sur 0 -- -- 93
2019-09-26 02:00:00 15.8 0 Calma 2 Norte 0 -- -- 93
2019-09-26 01:00:00 15.8 0 Calma 3 Sudeste 0 -- -- 92
2019-09-26 00:00:00 16.3 0 Calma 3 Este 0 -- -- 92
2019-09-25 23:00:00 16.5 0 Calma 3 Sudeste 0 -- -- 90
2019-09-25 22:00:00 16.7 0 Calma 4 Sudeste 0 -- -- 89
2019-09-25 21:00:00 17.6 0 Calma 4 Sudeste 0 -- -- 85
2019-09-25 20:00:00 18.5 2 Sudeste 8 Noroeste 0 -- -- 82
2019-09-25 19:00:00 20 2 Norte 11 Noroeste 0 -- -- 70
2019-09-25 18:00:00 20.5 5 Noroeste 13 Oeste 0 -- -- 68
2019-09-25 17:00:00 20.7 7 Oeste 23 Oeste 0 -- -- 65
2019-09-25 16:00:00 20.9 7 Oeste 21 Noroeste 0 -- -- 62
2019-09-25 15:00:00 21.1 9 Noroeste 20 Sudoeste 0 -- -- 60
2019-09-25 14:00:00 21 6 Noroeste 22 Sudoeste 0 -- -- 63
2019-09-25 13:00:00 20 6 Oeste 18 Oeste 0 -- -- 67
2019-09-25 12:00:00 19.5 6 Sudoeste 15 Sudoeste 0 -- -- 70
2019-09-25 11:00:00 18.4 4 Oeste 19 Sudoeste 0 -- -- 72
2019-09-25 10:00:00 16.6 4 Nordeste 10 Nordeste 0 -- -- 88
2019-09-25 09:00:00 15.3 3 Nordeste 5 Sudeste 0 -- -- 94
2019-09-25 08:00:00 15.3 2 Sudeste 6 Sudeste 0 -- -- 94
2019-09-25 07:00:00 15.6 0 Calma 5 Sur 0 -- -- 94
2019-09-25 06:00:00 15.6 0 Calma 4 Sur 0 -- -- 95
2019-09-25 05:00:00 15.6 0 Calma 3 Sur 0 -- -- 94
2019-09-25 04:00:00 15.9 0 Calma 3 Sudeste 0 -- -- 93
2019-09-25 03:00:00 16.1 0 Calma 4 Noroeste 0 -- -- 94
2019-09-25 02:00:00 16.3 0 Calma 4 Sudeste 0 -- -- 93
2019-09-25 01:00:00 16.5 0 Calma 4 Nordeste 0.2 -- -- 92
2019-09-25 00:00:00 16.9 2 Noroeste 5 Nordeste 0 -- -- 91
2019-09-24 23:00:00 17.2 0 Calma 6 Nordeste 0 -- -- 90
2019-09-24 22:00:00 17.7 2 Sur 9 Oeste 0.2 -- -- 87
2019-09-24 21:00:00 18.1 0 Calma 5 Este 0 -- -- 85
2019-09-24 20:00:00 19 0 Calma 5 Sur 0 -- -- 82
2019-09-24 19:00:00 20.5 0 Calma 9 Noroeste 0 -- -- 78
2019-09-24 18:00:00 20.8 5 Noroeste 18 Noroeste 0 -- -- 70
2019-09-24 17:00:00 21.1 3 Nordeste 25 Oeste 0 -- -- 69
2019-09-24 16:00:00 21 11 Oeste 27 Oeste 0 -- -- 71
2019-09-24 15:00:00 22.8 7 Norte 26 Norte 0 -- -- 73
2019-09-24 14:00:00 27.3 4 Norte 14 Noroeste 0 -- -- 54
2019-09-24 13:00:00 26.6 4 Sur 12 Sur 0 -- -- 52
2019-09-24 12:00:00 24.8 3 Este 6 Este 0 -- -- 50
2019-09-24 11:00:00 21.4 0 Calma 3 Noroeste 0 -- -- 75
2019-09-24 10:00:00 19.3 0 Calma 9 Noroeste 0 -- -- 78
2019-09-24 09:00:00 19.8 3 Oeste 14 Sudeste 0 -- -- 66
2019-09-24 08:00:00 22.5 5 Sur 23 Sur 0 -- -- 54
2019-09-24 07:00:00 21.4 6 Sur 25 Sur 0 -- -- 51
2019-09-24 06:00:00 19.1 7 Sudeste 19 Este 0 -- -- 65
2019-09-24 05:00:00 16.1 2 Este 10 Sudoeste 0 -- -- 80
2019-09-24 04:00:00 14.4 2 Sudoeste 8 Oeste 0 -- -- 95
2019-09-24 03:00:00 14.8 0 Calma 4 Sur 0 -- -- 93
2019-09-24 02:00:00 15.9 0 Calma 5 Sudeste 0 -- -- 93
2019-09-24 01:00:00 16.6 2 Sudeste 4 Sudeste 0 -- -- 92
2019-09-24 00:00:00 17.1 0 Calma 2 Sudeste 0 -- -- 91
2019-09-23 23:00:00 17.5 0 Calma 4 Sudeste 0 -- -- 90
2019-09-23 22:00:00 18 0 Calma 4 Este 0 -- -- 89
2019-09-23 21:00:00 18.7 0 Calma 5 Este 0 -- -- 85
2019-09-23 20:00:00 20.8 0 Calma 7 Sudeste 0 -- -- 80
2019-09-23 19:00:00 22.7 2 Norte 6 Norte 0 -- -- 76
2019-09-23 18:00:00 24.1 2 Nordeste 6 Norte 0 -- -- 67
2019-09-23 17:00:00 24.8 2 Sudeste 10 Sur 0 -- -- 54
2019-09-23 16:00:00 25.2 2 Sudeste 14 Sur 0 -- -- 49
2019-09-23 15:00:00 24.5 4 Sudeste 15 Sudeste 0 -- -- 52
2019-09-23 14:00:00 24 5 Sur 17 Sudoeste 0 -- -- 55
2019-09-23 13:00:00 22.2 2 Norte 4 Norte 0 -- -- 69
2019-09-23 12:00:00 20.7 0 Calma 4 Noroeste 0 -- -- 68
2019-09-23 11:00:00 18.5 3 Sur 6 Sur 0 -- -- 78
2019-09-23 10:00:00 16 2 Este 5 Nordeste 0 -- -- 87
2019-09-23 09:00:00 14 0 Calma 4 Oeste 0 -- -- 95
2019-09-23 08:00:00 13.8 0 Calma 4 Sudoeste 0 -- -- 95
2019-09-23 07:00:00 13.9 0 Calma 4 Sudoeste 0 -- -- 96
2019-09-23 06:00:00 13.8 0 Calma 4 Nordeste 0 -- -- 96
2019-09-23 05:00:00 13.8 0 Calma 4 Sudeste 0 -- -- 97
2019-09-23 04:00:00 14 2 Sudeste 5 Sudeste 0 -- -- 96
2019-09-23 03:00:00 14.3 0 Calma 3 Este 0 -- -- 96
2019-09-23 02:00:00 14.2 0 Calma 0 Calma 0 -- -- 96
2019-09-23 01:00:00 13.6 0 Calma 3 Sudeste 0 -- -- 95
2019-09-23 00:00:00 14.1 0 Calma 4 Sudeste 0 -- -- 93
2019-09-22 23:00:00 15.4 0 Calma 4 Este 0 -- -- 93
2019-09-22 22:00:00 15.4 0 Calma 4 Sudeste 0 -- -- 92
2019-09-22 21:00:00 16.4 3 Sudeste 5 Sudeste 0 -- -- 88
2019-09-22 20:00:00 18 0 Calma 8 Norte 0 -- -- 84
2019-09-22 19:00:00 20.2 3 Noroeste 16 Noroeste 0 -- -- 68
2019-09-22 18:00:00 21.4 9 Noroeste 20 Noroeste 0 -- -- 65
2019-09-22 17:00:00 22.6 7 Noroeste 14 Noroeste 0 -- -- 63
2019-09-22 16:00:00 21.3 4 Norte 11 Noroeste 0 -- -- 70
2019-09-22 15:00:00 21.7 4 Norte 9 Noroeste 0 -- -- 69
2019-09-22 14:00:00 21.1 3 Sudeste 6 Sudoeste 0 -- -- 75
2019-09-22 13:00:00 19.7 2 Oeste 7 Oeste 0 -- -- 85
2019-09-22 12:00:00 17.9 2 Sudeste 7 Sudeste 0 -- -- 89
2019-09-22 11:00:00 16.5 0 Calma 5 Oeste 0.4 -- -- 96
2019-09-22 10:00:00 16.1 0 Calma 6 Norte 0.4 -- -- 96
2019-09-22 09:00:00 15.9 3 Este 9 Este 5.6 -- -- 96
2019-09-22 08:00:00 16.5 2 Sudoeste 22 Noroeste 4.6 -- -- 94
2019-09-22 07:00:00 17.2 0 Calma 6 Nordeste 8.8 -- -- 93
2019-09-22 06:00:00 18.3 4 Norte 15 Noroeste 3.2 -- -- 89
2019-09-22 05:00:00 19.8 3 Noroeste 18 Norte 1 -- -- 87
2019-09-22 04:00:00 21.7 5 Noroeste 18 Noroeste 0.2 -- -- 77
2019-09-22 03:00:00 24.3 5 Sudoeste 33 Sudoeste 0 -- -- 60
2019-09-22 02:00:00 24.8 6 Sudeste 20 Noroeste 0 -- -- 55
2019-09-22 01:00:00 24.9 9 Sudoeste 32 Sur 0 -- -- 54
2019-09-22 00:00:00 24.9 6 Sudoeste 28 Sudoeste 0 -- -- 53
2019-09-21 23:00:00 25.3 8 Sudoeste 26 Sudeste 0 -- -- 51
2019-09-21 22:00:00 26 6 Este 22 Sudeste 0 -- -- 48
2019-09-21 21:00:00 24.8 5 Sudeste 17 Sudeste 0 -- -- 53
2019-09-21 20:00:00 24.2 4 Sur 10 Sur 0 -- -- 61
2019-09-21 19:00:00 25 0 Calma 17 Este 0 -- -- 65
2019-09-21 18:00:00 26.3 4 Sudeste 11 Sur 0 -- -- 62
2019-09-21 17:00:00 26.7 3 Este 30 Sudeste 0 -- -- 56
2019-09-21 16:00:00 26.5 3 Sudeste 21 Sur 0 -- -- 54
2019-09-21 15:00:00 27.1 6 Sudeste 32 Sudoeste 0 -- -- 50
2019-09-21 14:00:00 26.4 6 Sur 24 Sudoeste 0 -- -- 55
2019-09-21 13:00:00 25.1 10 Oeste 21 Sudoeste 0 -- -- 58
2019-09-21 12:00:00 25.3 5 Nordeste 20 Sudoeste 0 -- -- 56
2019-09-21 11:00:00 23.5 5 Sur 27 Sudeste 0 -- -- 63
2019-09-21 10:00:00 22.6 9 Sur 31 Sur 0 -- -- 64
2019-09-21 09:00:00 22.2 8 Sudeste 25 Sudoeste 0 -- -- 65
2019-09-21 08:00:00 21.9 5 Sudeste 24 Sudoeste 0 -- -- 66
2019-09-21 07:00:00 22.1 5 Noroeste 39 Sur 0 -- -- 65
2019-09-21 06:00:00 22.1 12 Sur 28 Sudoeste 0 -- -- 63
2019-09-21 05:00:00 22.4 7 Nordeste 33 Sur 0 -- -- 63
2019-09-21 04:00:00 22.9 10 Noroeste 25 Sur 0 -- -- 60
2019-09-21 03:00:00 23.1 6 Sudoeste 33 Sur 0 -- -- 60
2019-09-21 02:00:00 23.1 3 Sur 35 Sudoeste 0 -- -- 62
2019-09-21 01:00:00 24.5 9 Sur 23 Sudoeste 0 -- -- 59
2019-09-21 00:00:00 23.3 6 Sur 16 Noroeste 0 -- -- 65
2019-09-20 23:00:00 24.8 7 Sudeste 27 Sur 0 -- -- 57
2019-09-20 22:00:00 20.7 5 Nordeste 14 Sudoeste 0 -- -- 75
2019-09-20 21:00:00 20.8 2 Sudeste 5 Sur 0 -- -- 82
2019-09-20 20:00:00 22.3 0 Calma 8 Sudeste 0 -- -- 75
2019-09-20 19:00:00 25.9 3 Sudeste 9 Este 0 -- -- 67
2019-09-20 18:00:00 30 3 Sur 14 Sudeste 0 -- -- 55
2019-09-20 17:00:00 31.6 5 Sudeste 21 Este 0 -- -- 38
2019-09-20 16:00:00 31.2 6 Sudeste 21 Sudeste 0 -- -- 42
2019-09-20 15:00:00 29.7 5 Sur 19 Sur 0 -- -- 46
2019-09-20 14:00:00 26.2 4 Sudoeste 11 Sur 0 -- -- 68
2019-09-20 13:00:00 27.7 6 Sudoeste 18 Sudoeste 0 -- -- 52
2019-09-20 12:00:00 24.8 4 Sur 18 Sur 0 -- -- 70
2019-09-20 11:00:00 21.1 3 Sudeste 8 Sur 0 -- -- 87
2019-09-20 10:00:00 18.3 0 Calma 4 Nordeste 0 -- -- 92
2019-09-20 09:00:00 15.6 0 Calma 5 Este 0 -- -- 98
2019-09-20 08:00:00 15.3 0 Calma 3 Sudeste 0 -- -- 97
2019-09-20 07:00:00 15.7 0 Calma 0 Calma 0 -- -- 97
2019-09-20 06:00:00 16 0 Calma 0 Calma 0 -- -- 97
2019-09-20 05:00:00 16.2 0 Calma 0 Calma 0 -- -- 97
2019-09-20 04:00:00 16.4 0 Calma 0 Calma 0 -- -- 97
2019-09-20 03:00:00 16.4 0 Calma 0 Calma 0 -- -- 97
2019-09-20 02:00:00 16.2 0 Calma 3 Sudeste 0 -- -- 97
2019-09-20 01:00:00 15.5 2 Este 4 Sudeste 0 -- -- 96
2019-09-20 00:00:00 15.7 0 Calma 4 Sudeste 0 -- -- 94
2019-09-19 23:00:00 16.2 0 Calma 4 Sudeste 0 -- -- 93
2019-09-19 22:00:00 17.1 0 Calma 5 Sudeste 0 -- -- 92
2019-09-19 21:00:00 18.6 3 Sudeste 7 Noroeste 0 -- -- 88
2019-09-19 20:00:00 20.7 2 Noroeste 9 Noroeste 0 -- -- 81
2019-09-19 19:00:00 22 4 Noroeste 12 Noroeste 0 -- -- 76
2019-09-19 18:00:00 22.2 7 Noroeste 17 Noroeste 0 -- -- 75
2019-09-19 17:00:00 22.6 8 Noroeste 21 Norte 0 -- -- 73
2019-09-19 16:00:00 24 10 Norte 21 Noroeste 0 -- -- 69
2019-09-19 15:00:00 24.8 7 Norte 19 Noroeste 0 -- -- 70
2019-09-19 14:00:00 24.8 7 Noroeste 17 Noroeste 0 -- -- 67
2019-09-19 13:00:00 23.9 0 Calma 6 Sudeste 0 -- -- 68
2019-09-19 12:00:00 22 2 Sudoeste 4 Sur 0 -- -- 76
2019-09-19 11:00:00 17.9 0 Calma 4 Sur 0 -- -- 93
2019-09-19 10:00:00 16.6 0 Calma 3 Noroeste 0 -- -- 95
2019-09-19 09:00:00 16.1 0 Calma 6 Oeste 0 -- -- 97
2019-09-19 08:00:00 16.1 0 Calma 3 Sudeste 0 -- -- 97
2019-09-19 07:00:00 15.9 0 Calma 5 Sur 0 -- -- 97
2019-09-19 06:00:00 16 0 Calma 6 Sur 0 -- -- 97
2019-09-19 05:00:00 16.3 0 Calma 0 Calma 0 -- -- 97
2019-09-19 04:00:00 16.5 0 Calma 0 Calma 0 -- -- 97
2019-09-19 03:00:00 16.6 0 Calma 0 Calma 0 -- -- 96
2019-09-19 02:00:00 16.4 0 Calma 2 Noroeste 0 -- -- 96
2019-09-19 01:00:00 15.9 2 Nordeste 4 Nordeste 0 -- -- 96
2019-09-19 00:00:00 16.1 2 Este 4 Sudeste 0 -- -- 94
2019-09-18 23:00:00 16.8 0 Calma 4 Sudeste 0 -- -- 93
2019-09-18 22:00:00 17.8 0 Calma 6 Sudeste 0 -- -- 91
2019-09-18 21:00:00 19.3 0 Calma 8 Oeste 0 -- -- 88
2019-09-18 20:00:00 21.7 4 Oeste 10 Oeste 0 -- -- 79
2019-09-18 19:00:00 22.6 4 Norte 15 Oeste 0 -- -- 77
2019-09-18 18:00:00 22.7 6 Norte 17 Noroeste 0 -- -- 78
2019-09-18 17:00:00 24.4 4 Noroeste 25 Norte 0 -- -- 72
2019-09-18 16:00:00 24.9 10 Noroeste 27 Noroeste 0 -- -- 71
2019-09-18 15:00:00 26.2 8 Oeste 19 Oeste 0 -- -- 65
2019-09-18 14:00:00 25.6 9 Noroeste 18 Noroeste 0 -- -- 68
2019-09-18 13:00:00 24.9 2 Sur 6 Sudoeste 0 -- -- 68
2019-09-18 12:00:00 20.8 2 Sudeste 7 Noroeste 0 -- -- 87
2019-09-18 11:00:00 19.4 0 Calma 5 Sur 0 -- -- 92
2019-09-18 10:00:00 18.2 3 Norte 8 Noroeste 0 -- -- 94
2019-09-18 09:00:00 17.5 0 Calma 3 Sur 0 -- -- 96
2019-09-18 08:00:00 17.3 0 Calma 5 Este 0 -- -- 97
2019-09-18 07:00:00 17.2 0 Calma 4 Sur 0 -- -- 95
2019-09-18 06:00:00 17.8 0 Calma 3 Sur 0 -- -- 95
2019-09-18 05:00:00 17.8 0 Calma 5 Noroeste 0 -- -- 96
2019-09-18 04:00:00 17.8 0 Calma 4 Norte 0 -- -- 96
2019-09-18 03:00:00 17.9 0 Calma 2 Este 0 -- -- 96
2019-09-18 02:00:00 17.5 0 Calma 2 Sur 0 -- -- 96
2019-09-18 01:00:00 17.3 0 Calma 3 Este 0 -- -- 95
2019-09-18 00:00:00 17.5 0 Calma 4 Sudeste 0 -- -- 94
2019-09-17 23:00:00 18.1 2 Sudeste 4 Sudeste 0 -- -- 93
2019-09-17 22:00:00 19 0 Calma 4 Este 0 -- -- 91
2019-09-17 21:00:00 20.2 2 Sudeste 6 Sudeste 0 -- -- 88
2019-09-15 18:00:00 23.7 4 Este 16 Oeste 0.4 -- -- 77
2019-09-15 17:00:00 26.9 4 Noroeste 12 Noroeste 0 -- -- 58
2019-09-15 16:00:00 27.3 4 Norte 18 Noroeste 0 -- -- 60
2019-09-15 15:00:00 27.7 7 Noroeste 17 Noroeste 0 -- -- 58
2019-09-15 14:00:00 27.9 6 Noroeste 13 Noroeste 0 -- -- 60
2019-09-15 13:00:00 26.1 0 Calma 6 Noroeste 0 -- -- 65
2019-09-15 12:00:00 22.3 2 Sur 6 Sudeste 0 -- -- 80
2019-09-15 11:00:00 19.6 3 Norte 8 Noroeste 0 -- -- 88
2019-09-15 10:00:00 18.8 0 Calma 5 Sur 0 -- -- 91
2019-09-15 09:00:00 16.2 0 Calma 3 Sudeste 0 -- -- 97
2019-09-15 08:00:00 16.2 0 Calma 3 Sudeste 0 -- -- 97
2019-09-15 07:00:00 16.7 0 Calma 2 Nordeste 0 -- -- 97
2019-09-15 06:00:00 16.9 0 Calma 4 Sudeste 0 -- -- 97
2019-09-15 05:00:00 17.2 0 Calma 3 Norte 0 -- -- 97
2019-09-15 04:00:00 17.5 0 Calma 3 Noroeste 0 -- -- 97
2019-09-15 03:00:00 17.4 0 Calma 4 Sur 0 -- -- 96
2019-09-15 02:00:00 17 0 Calma 4 Sur 0 -- -- 96
2019-09-15 01:00:00 17 0 Calma 4 Sudeste 0 -- -- 95
2019-09-15 00:00:00 17.5 0 Calma 4 Sur 0 -- -- 94